Time;durP1;ratioP1;P1;durP2;ratioP2;P2;SDS_P1;SDS_P2;PMS_P1;PMS_P2;Temp;Humidity;BMP_temperature;BMP_pressure;BME280_temperature;BME280_humidity;BME280_pressure;Samples;Min_cycle;Max_cycle;Signal;HPM_P1;HPM_P2
2023/07/13 00:02:02;;;;;;;3.70;1.13;;;21.20;46.80;;;;;;4934503;28;20072;-50
2023/07/13 00:04:32;;;;;;;2.58;0.80;;;21.20;47.10;;;;;;4951567;28;20050;-49
2023/07/13 00:07:00;;;;;;;2.03;0.80;;;21.20;47.50;;;;;;4951754;28;20052;-47
2023/07/13 00:09:27;;;;;;;0.93;0.55;;;21.10;46.90;;;;;;4947074;28;20103;-46
2023/07/13 00:11:57;;;;;;;3.33;1.23;;;21.10;46.90;;;;;;4934427;28;20501;-48
2023/07/13 00:14:26;;;;;;;3.28;1.23;;;21.10;46.90;;;;;;4946951;28;20053;-47
2023/07/13 00:16:53;;;;;;;2.42;1.38;;;21.10;47.30;;;;;;4952068;28;20114;-48
2023/07/13 00:19:20;;;;;;;3.33;1.00;;;21.00;47.40;;;;;;4942484;28;20047;-50
2023/07/13 00:21:49;;;;;;;1.40;0.90;;;21.00;47.50;;;;;;4949484;28;20031;-50
2023/07/13 00:24:23;;;;;;;1.83;0.82;;;21.00;47.60;;;;;;4951064;28;20047;-47
2023/07/13 00:26:49;;;;;;;3.45;0.60;;;21.00;48.00;;;;;;4949278;28;20400;-46
2023/07/13 00:29:17;;;;;;;3.75;1.02;;;20.90;47.90;;;;;;4922087;28;20044;-49
2023/07/13 00:31:44;;;;;;;6.05;2.15;;;20.90;47.90;;;;;;4951556;28;20035;-47
2023/07/13 00:34:11;;;;;;;1.17;0.68;;;20.90;48.10;;;;;;4950075;28;20555;-50
2023/07/13 00:36:40;;;;;;;3.00;1.13;;;20.90;48.20;;;;;;4935993;29;20059;-47
2023/07/13 00:39:07;;;;;;;1.48;1.15;;;20.80;48.20;;;;;;4947054;28;20047;-48
2023/07/13 00:41:35;;;;;;;2.15;1.10;;;20.80;48.40;;;;;;4929307;29;20047;-47
2023/07/13 00:44:03;;;;;;;1.83;1.02;;;20.80;48.40;;;;;;4922920;29;20035;-51
2023/07/13 00:46:33;;;;;;;1.45;0.75;;;20.80;48.60;;;;;;4934782;28;20049;-46
2023/07/13 00:49:09;;;;;;;3.05;1.10;;;20.80;48.60;;;;;;4941531;28;20028;-49
2023/07/13 00:51:50;;;;;;;1.77;0.93;;;20.70;48.80;;;;;;4939151;28;20051;-50
2023/07/13 00:54:27;;;;;;;1.38;0.88;;;20.70;49.20;;;;;;4937441;28;20063;-46
2023/07/13 00:57:03;;;;;;;2.60;0.77;;;20.70;49.40;;;;;;4934452;29;20051;-46
2023/07/13 00:59:34;;;;;;;3.15;1.05;;;20.70;49.20;;;;;;4943267;28;20047;-49
2023/07/13 01:02:02;;;;;;;3.47;0.98;;;20.60;49.20;;;;;;4955516;28;20032;-50
2023/07/13 01:04:31;;;;;;;2.92;1.10;;;20.60;49.10;;;;;;4938227;28;20630;-50
2023/07/13 01:07:00;;;;;;;3.05;1.00;;;20.50;49.40;;;;;;4935252;29;20043;-50
2023/07/13 01:09:30;;;;;;;5.15;1.25;;;20.50;49.10;;;;;;4952795;28;20114;-51
2023/07/13 01:11:56;;;;;;;4.13;1.20;;;20.50;49.20;;;;;;4929653;29;20074;-50
2023/07/13 01:14:25;;;;;;;4.55;1.30;;;20.40;49.20;;;;;;4931999;28;20110;-50
2023/07/13 01:16:56;;;;;;;2.45;0.80;;;20.40;49.40;;;;;;4937708;29;20042;-53
2023/07/13 01:19:35;;;;;;;4.50;1.15;;;20.40;49.50;;;;;;4954147;28;20525;-52
2023/07/13 01:22:12;;;;;;;3.90;1.67;;;20.40;50.00;;;;;;4933803;29;20079;-49
2023/07/13 01:24:42;;;;;;;1.77;1.27;;;20.40;50.10;;;;;;4947127;28;20046;-51
2023/07/13 01:27:11;;;;;;;3.78;1.08;;;20.30;50.00;;;;;;4937299;29;20043;-52
2023/07/13 01:29:41;;;;;;;2.92;0.90;;;20.30;49.90;;;;;;4942801;28;20481;-48
2023/07/13 01:32:15;;;;;;;2.80;1.75;;;20.30;50.00;;;;;;4944172;28;20039;-50
2023/07/13 01:34:46;;;;;;;3.92;1.00;;;20.30;50.40;;;;;;4947798;28;20058;-48
2023/07/13 01:37:18;;;;;;;;;;;20.20;50.10;;;;;;4937261;28;20508;-52
2023/07/13 01:39:47;;;;;;;3.47;0.88;;;20.30;49.60;;;;;;4939452;28;19970;-52
2023/07/13 01:42:17;;;;;;;2.22;0.90;;;20.20;49.90;;;;;;4933376;28;20048;-52
2023/07/13 01:44:49;;;;;;;2.13;0.90;;;20.20;50.10;;;;;;4917902;29;20040;-53
2023/07/13 01:47:18;;;;;;;1.65;1.05;;;20.20;50.20;;;;;;4934436;28;20400;-50
2023/07/13 01:49:47;;;;;;;2.88;1.00;;;20.10;50.70;;;;;;4934399;28;20032;-51
2023/07/13 01:52:16;;;;;;;3.20;1.10;;;20.10;50.60;;;;;;4921551;28;20596;-49
2023/07/13 01:54:44;;;;;;;3.22;1.35;;;20.10;50.90;;;;;;4934606;28;20042;-52
2023/07/13 01:57:16;;;;;;;5.05;1.05;;;20.10;51.00;;;;;;4942232;28;20062;-53
2023/07/13 01:59:43;;;;;;;1.95;0.80;;;20.00;51.00;;;;;;4925813;29;20040;-48
2023/07/13 02:02:11;;;;;;;5.15;1.40;;;20.00;51.30;;;;;;4917569;29;20044;-50
2023/07/13 02:04:41;;;;;;;3.72;1.73;;;20.00;51.40;;;;;;4917774;29;20044;-52
2023/07/13 02:07:09;;;;;;;4.78;2.78;;;19.90;51.40;;;;;;4926457;29;20139;-49
2023/07/13 02:09:39;;;;;;;2.05;0.85;;;19.90;51.50;;;;;;4933847;28;20036;-49
2023/07/13 02:12:08;;;;;;;2.92;0.77;;;19.90;51.60;;;;;;4924804;29;20040;-53
2023/07/13 02:14:38;;;;;;;1.98;0.90;;;19.90;51.70;;;;;;4921419;29;20500;-50
2023/07/13 02:17:05;;;;;;;1.77;0.93;;;19.90;51.70;;;;;;4918296;29;20107;-50
2023/07/13 02:19:36;;;;;;;2.25;1.13;;;19.90;51.80;;;;;;4920901;28;20043;-48
2023/07/13 02:22:05;;;;;;;3.25;0.90;;;19.80;51.70;;;;;;4933586;28;20043;-50
2023/07/13 02:24:32;;;;;;;4.93;1.08;;;19.80;51.90;;;;;;4901262;28;20040;-52
2023/07/13 02:27:03;;;;;;;2.42;1.48;;;19.80;52.00;;;;;;4917384;29;20040;-48
2023/07/13 02:29:32;;;;;;;4.38;1.10;;;19.80;52.50;;;;;;4923580;28;20044;-48
2023/07/13 02:32:01;;;;;;;2.38;1.73;;;19.70;52.10;;;;;;4925216;29;20664;-49
2023/07/13 02:34:28;;;;;;;3.20;1.08;;;19.70;52.30;;;;;;4936639;28;20096;-49
2023/07/13 02:36:58;;;;;;;2.58;1.10;;;19.70;52.40;;;;;;4946137;28;20050;-48
2023/07/13 02:39:27;;;;;;;2.72;1.00;;;19.70;52.50;;;;;;4938725;28;20053;-53
2023/07/13 02:41:56;;;;;;;1.88;0.73;;;19.60;52.50;;;;;;4935371;28;20098;-52
2023/07/13 02:44:23;;;;;;;1.92;1.38;;;19.50;52.60;;;;;;4949244;28;20055;-53
2023/07/13 02:46:52;;;;;;;2.58;0.85;;;19.60;52.70;;;;;;4916662;29;20118;-53
2023/07/13 02:49:19;;;;;;;2.30;0.93;;;19.60;52.90;;;;;;4922957;28;20479;-49
2023/07/13 02:51:49;;;;;;;1.92;1.05;;;19.60;53.00;;;;;;4918351;29;20048;-50
2023/07/13 02:54:18;;;;;;;3.88;1.20;;;19.60;53.40;;;;;;4916184;28;20039;-49
2023/07/13 02:56:52;;;;;;;1.77;0.90;;;19.50;53.10;;;;;;4917020;29;20574;-52
2023/07/13 02:59:19;;;;;;;2.00;1.23;;;19.50;53.20;;;;;;4924273;28;20103;-51
2023/07/13 03:01:45;;;;;;;2.03;0.98;;;19.40;53.30;;;;;;4926954;28;20043;-51
2023/07/13 03:04:12;;;;;;;2.03;0.98;;;19.50;53.50;;;;;;4936382;28;20071;-48
2023/07/13 03:06:41;;;;;;;2.20;1.00;;;19.40;53.60;;;;;;4917574;29;20048;-49
2023/07/13 03:09:12;;;;;;;4.55;1.10;;;19.40;53.70;;;;;;4923712;29;20032;-53
2023/07/13 03:11:45;;;;;;;2.85;1.38;;;19.40;53.80;;;;;;4922005;29;20504;-50
2023/07/13 03:14:30;;;;;;;5.22;2.00;;;19.30;53.80;;;;;;4924359;28;20082;-48
2023/07/13 03:16:58;;;;;;;4.13;1.08;;;19.30;53.90;;;;;;4917099;29;20476;-50
2023/07/13 03:19:29;;;;;;;2.78;1.27;;;19.30;54.10;;;;;;4932024;28;20447;-49
2023/07/13 03:21:56;;;;;;;3.15;1.10;;;19.30;54.10;;;;;;4923221;29;20457;-52
2023/07/13 03:24:25;;;;;;;1.52;0.95;;;19.20;54.30;;;;;;4916078;28;20039;-51
2023/07/13 03:26:52;;;;;;;5.18;1.25;;;19.20;54.40;;;;;;4947465;28;20419;-51
2023/07/13 03:29:20;;;;;;;5.70;1.15;;;19.20;54.60;;;;;;4916512;28;20037;-52
2023/07/13 03:31:46;;;;;;;3.22;1.33;;;19.20;54.60;;;;;;4926109;29;20051;-52
2023/07/13 03:34:15;;;;;;;2.78;0.95;;;19.20;54.70;;;;;;4903793;29;20051;-53
2023/07/13 03:36:42;;;;;;;4.28;1.25;;;19.10;54.80;;;;;;4915527;29;20050;-50
2023/07/13 03:39:12;;;;;;;2.72;1.58;;;19.10;55.00;;;;;;4922249;29;20620;-52
2023/07/13 03:41:52;;;;;;;3.47;1.38;;;19.10;55.00;;;;;;4920629;29;20191;-50
2023/07/13 03:44:21;;;;;;;2.78;0.80;;;19.00;55.10;;;;;;4923026;28;20047;-50
2023/07/13 03:46:52;;;;;;;5.10;2.42;;;19.00;55.30;;;;;;4930265;29;20123;-51
2023/07/13 03:49:19;;;;;;;3.08;1.13;;;19.00;55.20;;;;;;4934360;28;20039;-53
2023/07/13 03:51:46;;;;;;;6.32;1.35;;;19.00;55.50;;;;;;4918416;29;20059;-49
2023/07/13 03:54:13;;;;;;;3.90;1.42;;;19.00;55.50;;;;;;4940458;28;20423;-48
2023/07/13 03:56:44;;;;;;;2.80;1.30;;;19.00;55.60;;;;;;4925155;28;20039;-49
2023/07/13 03:59:14;;;;;;;5.18;1.58;;;19.00;55.80;;;;;;4919171;29;20043;-49
2023/07/13 04:01:43;;;;;;;5.20;1.33;;;19.00;55.80;;;;;;4914891;28;20039;-52
2023/07/13 04:04:15;;;;;;;3.88;1.08;;;19.00;56.00;;;;;;4931823;28;20044;-49
2023/07/13 04:06:47;;;;;;;3.88;1.23;;;19.00;56.00;;;;;;4934870;28;20035;-49
2023/07/13 04:09:18;;;;;;;3.67;1.30;;;19.00;56.00;;;;;;4915120;29;20440;-52
2023/07/13 04:11:45;;;;;;;2.35;1.20;;;19.00;56.00;;;;;;4922074;29;20114;-52
2023/07/13 04:14:11;;;;;;;6.38;1.50;;;19.00;56.20;;;;;;4921357;29;20051;-53
2023/07/13 04:16:43;;;;;;;6.35;1.70;;;19.00;56.30;;;;;;4915304;28;20133;-51
2023/07/13 04:19:10;;;;;;;2.72;1.10;;;19.00;56.30;;;;;;4933300;28;20071;-52
2023/07/13 04:21:37;;;;;;;4.30;1.50;;;19.00;56.40;;;;;;4931298;28;20047;-52
2023/07/13 04:24:04;;;;;;;2.65;1.25;;;19.00;56.40;;;;;;4939477;28;20063;-52
2023/07/13 04:26:30;;;;;;;5.22;1.65;;;19.00;56.50;;;;;;4932410;28;20051;-53
2023/07/13 04:29:00;;;;;;;5.85;1.67;;;19.00;56.60;;;;;;4931715;28;20104;-52
2023/07/13 04:31:28;;;;;;;7.70;1.50;;;19.10;56.70;;;;;;4931526;28;20051;-53
2023/07/13 04:33:56;;;;;;;4.93;1.40;;;19.10;56.80;;;;;;4932018;28;20047;-52
2023/07/13 04:36:29;;;;;;;5.00;1.60;;;19.10;56.80;;;;;;4932599;28;20058;-48
2023/07/13 04:38:59;;;;;;;3.47;1.30;;;19.10;57.10;;;;;;4933853;28;20126;-50
2023/07/13 04:41:28;;;;;;;6.20;1.63;;;19.10;57.10;;;;;;4932546;28;20048;-52
2023/07/13 04:43:57;;;;;;;4.68;2.13;;;19.10;56.90;;;;;;4940629;28;20042;-48
2023/07/13 04:46:23;;;;;;;2.70;1.88;;;19.10;57.00;;;;;;4946593;28;20107;-48
2023/07/13 04:48:53;;;;;;;2.67;1.55;;;19.10;57.00;;;;;;4931350;28;20040;-52
2023/07/13 04:51:19;;;;;;;3.45;1.65;;;19.10;57.10;;;;;;4936361;28;20583;-49
2023/07/13 04:53:46;;;;;;;3.35;1.70;;;19.10;57.30;;;;;;4942650;28;20123;-52
2023/07/13 04:56:13;;;;;;;5.65;1.88;;;19.20;58.00;;;;;;4931840;28;20048;-53
2023/07/13 04:58:40;;;;;;;5.95;1.92;;;19.10;57.50;;;;;;4938962;28;20059;-51
2023/07/13 05:01:08;;;;;;;5.22;1.40;;;19.10;57.60;;;;;;4934259;28;20051;-50
2023/07/13 05:03:35;;;;;;;4.38;1.38;;;19.10;57.70;;;;;;4941149;28;20504;-52
2023/07/13 05:06:09;;;;;;;4.68;1.77;;;19.20;57.70;;;;;;4932225;28;20048;-51
2023/07/13 05:08:36;;;;;;;3.50;1.42;;;19.10;58.10;;;;;;4934739;28;20415;-53
2023/07/13 05:11:05;;;;;;;3.55;1.40;;;19.20;57.70;;;;;;4932095;28;20051;-51
2023/07/13 05:13:31;;;;;;;4.25;1.80;;;19.20;57.90;;;;;;4938279;28;20464;-50
2023/07/13 05:16:00;;;;;;;4.75;1.48;;;19.20;57.90;;;;;;4931331;28;20571;-52
2023/07/13 05:18:28;;;;;;;3.78;1.33;;;19.20;58.00;;;;;;4930703;28;20126;-51
2023/07/13 05:21:01;;;;;;;5.93;1.50;;;19.30;58.00;;;;;;4936373;28;20501;-52
2023/07/13 05:23:28;;;;;;;3.35;1.70;;;19.30;58.20;;;;;;4936665;28;20051;-53
2023/07/13 05:25:55;;;;;;;6.15;1.90;;;19.30;57.90;;;;;;4933079;28;20060;-53
2023/07/13 05:28:25;;;;;;;2.33;1.48;;;19.40;58.10;;;;;;4942396;28;20122;-52
2023/07/13 05:30:52;;;;;;;3.92;1.95;;;19.40;58.30;;;;;;4931619;28;20040;-53
2023/07/13 05:33:18;;;;;;;5.07;1.67;;;19.40;58.40;;;;;;4944977;28;20051;-52
2023/07/13 05:35:47;;;;;;;3.63;1.55;;;19.40;58.50;;;;;;4943458;28;20044;-53
2023/07/13 05:38:14;;;;;;;4.68;1.85;;;19.50;58.60;;;;;;4949471;28;20047;-53
2023/07/13 05:40:45;;;;;;;5.95;2.28;;;19.50;58.60;;;;;;4947407;28;20448;-53
2023/07/13 05:43:12;;;;;;;6.32;1.90;;;19.60;58.60;;;;;;4950627;28;20122;-53
2023/07/13 05:45:39;;;;;;;4.32;1.80;;;19.70;58.80;;;;;;4947318;28;20055;-50
2023/07/13 05:48:06;;;;;;;4.63;2.20;;;19.70;58.70;;;;;;4950013;28;20098;-52
2023/07/13 05:50:33;;;;;;;3.88;2.20;;;19.80;58.80;;;;;;4946111;28;20067;-51
2023/07/13 05:53:00;;;;;;;6.15;2.45;;;19.90;58.60;;;;;;4947694;28;20058;-53
2023/07/13 05:55:27;;;;;;;4.43;2.10;;;19.90;58.60;;;;;;4949976;28;20085;-53
2023/07/13 05:57:53;;;;;;;4.35;2.22;;;20.00;58.50;;;;;;4947344;28;20496;-52
2023/07/13 06:00:20;;;;;;;3.78;2.45;;;20.20;58.60;;;;;;4948799;28;20043;-51
2023/07/13 06:02:47;;;;;;;4.47;2.20;;;20.30;58.30;;;;;;4950669;28;20051;-52
2023/07/13 06:05:14;;;;;;;7.63;2.53;;;20.30;58.00;;;;;;4938567;28;20483;-51
2023/07/13 06:07:41;;;;;;;10.50;2.60;;;20.40;57.80;;;;;;4935417;28;20052;-50
2023/07/13 06:10:09;;;;;;;6.43;2.88;;;20.40;57.70;;;;;;4942348;28;20123;-53
2023/07/13 06:12:35;;;;;;;7.28;2.20;;;20.50;57.60;;;;;;4933258;28;20416;-49
2023/07/13 06:15:03;;;;;;;5.72;2.20;;;20.50;57.60;;;;;;4944080;28;20570;-50
2023/07/13 06:17:30;;;;;;;6.22;2.50;;;20.50;57.50;;;;;;4934948;28;20439;-49
2023/07/13 06:19:57;;;;;;;4.50;2.00;;;20.50;57.20;;;;;;4944897;28;20035;-52
2023/07/13 06:22:24;;;;;;;5.57;3.05;;;20.50;57.30;;;;;;4941107;28;20484;-51
2023/07/13 06:24:51;;;;;;;5.30;2.05;;;20.50;57.50;;;;;;4925021;28;20039;-52
2023/07/13 06:27:18;;;;;;;3.60;2.22;;;20.50;57.50;;;;;;4946555;28;20039;-49
2023/07/13 06:29:45;;;;;;;4.60;2.20;;;20.60;57.60;;;;;;4939361;28;20043;-53
2023/07/13 06:32:12;;;;;;;4.68;2.10;;;20.60;57.60;;;;;;4940422;28;20043;-50
2023/07/13 06:34:38;;;;;;;7.60;2.40;;;20.60;57.60;;;;;;4950715;28;20043;-53
2023/07/13 06:37:09;;;;;;;5.93;2.22;;;20.70;57.70;;;;;;4927024;29;20071;-52
2023/07/13 06:39:36;;;;;;;6.90;2.50;;;20.70;57.60;;;;;;4937516;28;20051;-53
2023/07/13 06:42:03;;;;;;;3.53;2.00;;;20.80;57.40;;;;;;4935378;28;20051;-52
2023/07/13 06:44:30;;;;;;;5.22;2.33;;;20.90;57.40;;;;;;4936540;28;20068;-49
2023/07/13 06:46:56;;;;;;;5.35;2.22;;;21.00;57.20;;;;;;4939872;28;20115;-53
2023/07/13 06:49:23;;;;;;;6.90;2.08;;;21.00;57.10;;;;;;4934452;28;20091;-52
2023/07/13 06:51:50;;;;;;;5.55;2.13;;;21.10;57.10;;;;;;4933675;28;20054;-53
2023/07/13 06:54:16;;;;;;;4.35;1.80;;;21.10;56.90;;;;;;4940870;28;20048;-52
2023/07/13 06:56:43;;;;;;;9.18;2.30;;;21.20;56.70;;;;;;4932782;28;20535;-53
2023/07/13 06:59:10;;;;;;;4.13;1.98;;;21.20;57.30;;;;;;4941023;28;20043;-53
2023/07/13 07:01:36;;;;;;;7.47;2.22;;;21.30;56.80;;;;;;4950273;28;20393;-53
2023/07/13 07:04:07;;;;;;;7.47;2.78;;;21.30;56.70;;;;;;4940886;28;20046;-51
2023/07/13 07:06:34;;;;;;;6.18;2.65;;;21.40;56.70;;;;;;4933621;28;20165;-52
2023/07/13 07:09:00;;;;;;;6.07;2.88;;;21.40;56.70;;;;;;4936277;28;20526;-52
2023/07/13 07:11:29;;;;;;;4.85;2.35;;;21.50;56.50;;;;;;4936462;28;20413;-52
2023/07/13 07:13:56;;;;;;;4.35;2.20;;;21.50;56.50;;;;;;4943515;28;20043;-53
2023/07/13 07:16:24;;;;;;;5.85;2.65;;;21.70;56.30;;;;;;4934567;28;20075;-52
2023/07/13 07:18:51;;;;;;;6.80;2.13;;;21.70;56.50;;;;;;4947097;28;20725;-50
2023/07/13 07:21:18;;;;;;;4.72;2.80;;;21.80;56.00;;;;;;4932383;29;20043;-49
2023/07/13 07:23:46;;;;;;;4.80;2.20;;;21.90;56.10;;;;;;4946839;28;20047;-48
2023/07/13 07:26:12;;;;;;;4.10;2.28;;;21.90;56.20;;;;;;4934647;23;20167;-50
2023/07/13 07:28:39;;;;;;;5.20;2.55;;;22.00;55.80;;;;;;4905468;29;20458;-50
2023/07/13 07:31:11;;;;;;;;;;;22.10;55.50;;;;;;4914537;29;20050;-50
2023/07/13 07:33:41;;;;;;;7.15;2.63;;;22.20;55.40;;;;;;4905392;29;19927;-49
2023/07/13 07:36:08;;;;;;;4.25;2.30;;;22.20;55.20;;;;;;4913103;29;20040;-53
2023/07/13 07:38:37;;;;;;;5.38;2.75;;;22.20;55.20;;;;;;4900046;29;20040;-52
2023/07/13 07:41:05;;;;;;;4.60;2.45;;;22.20;55.30;;;;;;4919150;29;20048;-53
2023/07/13 07:43:34;;;;;;;6.75;2.83;;;22.20;55.90;;;;;;4917030;29;20036;-53
2023/07/13 07:46:03;;;;;;;4.03;3.00;;;22.20;55.10;;;;;;4899866;29;20047;-53
2023/07/13 07:48:30;;;;;;;5.90;2.78;;;22.20;55.20;;;;;;4920111;29;20060;-51
2023/07/13 07:50:57;;;;;;;4.53;2.38;;;22.20;55.10;;;;;;4928377;29;20048;-51
2023/07/13 07:53:23;;;;;;;9.43;3.05;;;22.20;55.10;;;;;;4923433;29;20448;-53
2023/07/13 07:55:52;;;;;;;5.57;3.00;;;22.10;55.30;;;;;;4929891;29;20600;-53
2023/07/13 07:58:23;;;;;;;6.78;3.47;;;22.20;55.50;;;;;;4924321;29;20044;-52
2023/07/13 08:00:52;;;;;;;7.80;2.72;;;22.20;55.50;;;;;;4922177;29;20108;-52
2023/07/13 08:03:22;;;;;;;6.05;2.58;;;22.30;55.50;;;;;;4915204;29;20075;-53
2023/07/13 08:05:54;;;;;;;4.82;2.65;;;22.30;55.50;;;;;;4930079;29;20047;-51
2023/07/13 08:08:25;;;;;;;8.20;2.35;;;22.30;55.80;;;;;;4930773;29;20036;-52
2023/07/13 08:10:51;;;;;;;6.72;2.67;;;22.40;55.40;;;;;;4916181;29;20044;-52
2023/07/13 08:13:21;;;;;;;6.90;2.78;;;22.40;55.30;;;;;;4923664;29;20043;-52
2023/07/13 08:15:49;;;;;;;6.00;2.50;;;22.50;55.20;;;;;;4925999;29;20587;-53
2023/07/13 08:18:16;;;;;;;6.68;2.63;;;22.50;55.30;;;;;;4929188;29;20047;-49
2023/07/13 08:20:43;;;;;;;6.85;3.00;;;22.50;55.50;;;;;;4916835;29;20044;-52
2023/07/13 08:23:10;;;;;;;6.32;2.85;;;22.60;55.20;;;;;;4919117;29;20100;-51
2023/07/13 08:25:36;;;;;;;5.35;2.35;;;22.60;55.30;;;;;;4912177;29;20119;-53
2023/07/13 08:28:04;;;;;;;6.82;3.17;;;22.70;55.00;;;;;;4919702;29;20048;-53
2023/07/13 08:30:31;;;;;;;5.43;2.63;;;22.70;55.40;;;;;;4920120;29;20675;-53
2023/07/13 08:32:57;;;;;;;5.95;2.58;;;22.80;55.00;;;;;;4915058;29;20052;-52
2023/07/13 08:35:25;;;;;;;5.10;2.55;;;22.90;54.90;;;;;;4923293;29;20050;-53
2023/07/13 08:37:52;;;;;;;4.70;2.67;;;22.90;54.80;;;;;;4929326;29;20059;-50
2023/07/13 08:40:24;;;;;;;6.70;2.67;;;23.00;54.70;;;;;;4920510;29;20044;-53
2023/07/13 08:42:58;;;;;;;4.00;2.50;;;23.00;54.30;;;;;;4919076;29;20036;-52
2023/07/13 08:45:49;;;;;;;5.45;2.17;;;23.10;54.40;;;;;;4930309;29;20087;-53
2023/07/13 08:48:46;;;;;;;8.35;2.72;;;23.20;54.10;;;;;;4928696;29;20068;-50
2023/07/13 08:51:48;;;;;;;4.63;2.17;;;23.30;53.80;;;;;;4913540;29;20064;-53
2023/07/13 08:54:21;;;;;;;7.35;2.45;;;23.40;53.80;;;;;;4880904;29;20054;-51
2023/07/13 08:56:53;;;;;;;4.72;2.15;;;23.40;53.80;;;;;;4915226;29;20103;-52
2023/07/13 08:59:25;;;;;;;4.30;2.33;;;23.40;53.70;;;;;;4922898;29;20050;-51
2023/07/13 09:02:17;;;;;;;4.25;2.05;;;23.50;53.40;;;;;;4923708;29;20078;-53
2023/07/13 09:04:56;;;;;;;5.82;2.65;;;23.60;53.60;;;;;;4928781;29;20067;-54
2023/07/13 09:07:26;;;;;;;5.25;2.47;;;23.60;53.10;;;;;;4920882;29;20040;-52
2023/07/13 09:10:13;;;;;;;5.65;2.30;;;23.70;53.30;;;;;;4928215;29;20092;-54
2023/07/13 09:13:09;;;;;;;5.45;2.22;;;23.70;53.20;;;;;;4919508;29;20100;-54
2023/07/13 09:15:47;;;;;;;4.15;2.17;;;23.80;52.90;;;;;;4923278;29;20275;-50
2023/07/13 09:18:32;;;;;;;4.35;2.20;;;23.90;52.60;;;;;;4930569;29;20044;-52
2023/07/13 09:21:11;;;;;;;5.32;2.58;;;23.90;52.70;;;;;;4920182;29;20123;-52
2023/07/13 09:23:39;;;;;;;5.97;2.05;;;24.00;52.40;;;;;;4925187;29;20044;-54
2023/07/13 09:26:21;;;;;;;4.57;2.22;;;24.00;52.00;;;;;;4926687;29;20123;-53
2023/07/13 09:29:03;;;;;;;4.57;2.45;;;24.10;51.80;;;;;;4933667;29;20114;-52
2023/07/13 09:31:39;;;;;;;3.92;2.00;;;24.10;51.40;;;;;;4927158;29;20056;-51
2023/07/13 09:34:13;;;;;;;5.53;2.10;;;24.20;51.50;;;;;;4931441;29;20074;-53
2023/07/13 09:36:39;;;;;;;3.03;2.15;;;24.20;52.30;;;;;;4926271;29;20044;-53
2023/07/13 09:39:29;;;;;;;4.60;2.50;;;24.20;51.70;;;;;;4923202;29;20481;-53
2023/07/13 09:42:21;;;;;;;3.40;2.20;;;24.30;51.00;;;;;;4918041;29;20075;-49
2023/07/13 09:44:55;;;;;;;2.28;1.80;;;24.30;50.60;;;;;;4914802;29;20055;-49
2023/07/13 09:47:31;;;;;;;5.70;2.53;;;24.30;50.50;;;;;;4920306;29;20056;-53
2023/07/13 09:50:14;;;;;;;5.80;2.05;;;24.30;50.50;;;;;;4917378;29;20044;-54
2023/07/13 09:52:45;;;;;;;5.20;2.15;;;24.30;50.20;;;;;;4931490;29;20111;-52
2023/07/13 09:55:30;;;;;;;3.70;2.00;;;24.30;50.10;;;;;;4929349;29;20127;-52
2023/07/13 09:57:57;;;;;;;4.10;1.92;;;24.20;50.70;;;;;;4923191;29;20060;-53
2023/07/13 10:00:26;;;;;;;4.60;2.03;;;24.20;50.80;;;;;;4932131;29;20460;-52
2023/07/13 10:03:03;;;;;;;4.55;2.03;;;24.20;50.70;;;;;;4933354;29;20040;-53
2023/07/13 10:05:42;;;;;;;4.13;2.30;;;24.30;50.30;;;;;;4915487;29;20066;-52
2023/07/13 10:08:18;;;;;;;7.15;2.33;;;24.40;50.20;;;;;;4931019;29;20043;-51
2023/07/13 10:10:45;;;;;;;7.07;2.63;;;24.40;49.90;;;;;;4919750;29;20046;-52
2023/07/13 10:13:27;;;;;;;7.65;2.45;;;24.50;50.10;;;;;;4920207;29;20406;-49
2023/07/13 10:15:56;;;;;;;5.50;2.35;;;24.50;50.10;;;;;;4922814;29;20449;-53
2023/07/13 10:18:24;;;;;;;2.55;1.70;;;24.60;49.70;;;;;;4915548;29;20048;-51
2023/07/13 10:21:00;;;;;;;4.07;2.17;;;24.60;50.20;;;;;;4912186;29;20099;-51
2023/07/13 10:23:54;;;;;;;3.72;1.98;;;24.70;50.70;;;;;;4915230;29;20048;-50
2023/07/13 10:26:32;;;;;;;4.20;1.90;;;24.80;49.90;;;;;;4933223;29;20075;-53
2023/07/13 10:29:04;;;;;;;3.50;1.52;;;24.90;50.00;;;;;;4925196;29;20051;-52
2023/07/13 10:31:31;;;;;;;;;;;25.00;49.30;;;;;;4929939;29;20103;-52
2023/07/13 10:33:58;;;;;;;4.70;1.42;;;25.10;49.60;;;;;;4920032;29;20451;-49
2023/07/13 10:36:54;;;;;;;6.00;1.50;;;25.20;49.10;;;;;;4924591;29;20168;-50
2023/07/13 10:39:26;;;;;;;4.68;1.30;;;25.30;48.40;;;;;;4900545;29;20598;-49
2023/07/13 10:41:59;;;;;;;3.60;1.40;;;25.30;48.40;;;;;;4917902;29;20052;-48
2023/07/13 10:44:30;;;;;;;2.70;1.52;;;25.30;47.80;;;;;;4920026;29;20052;-51
2023/07/13 10:47:04;;;;;;;3.80;1.60;;;25.30;47.60;;;;;;4915407;29;20577;-51
2023/07/13 10:49:32;;;;;;;2.70;1.30;;;25.30;47.50;;;;;;4937069;29;20078;-50
2023/07/13 10:51:59;;;;;;;4.53;1.70;;;25.30;47.40;;;;;;4935477;29;20122;-53
2023/07/13 10:54:31;;;;;;;5.13;1.70;;;25.30;47.70;;;;;;4933168;29;20075;-53
2023/07/13 10:57:17;;;;;;;2.45;1.40;;;25.40;47.60;;;;;;4915333;29;20135;-48
2023/07/13 10:59:48;;;;;;;4.38;1.48;;;25.40;47.90;;;;;;4916566;29;20115;-53
2023/07/13 11:02:27;;;;;;;2.30;1.10;;;25.30;47.80;;;;;;4921583;29;20040;-50
2023/07/13 11:04:57;;;;;;;3.30;1.60;;;25.40;47.30;;;;;;4914445;29;20535;-54
2023/07/13 11:07:30;;;;;;;1.70;1.08;;;25.30;46.60;;;;;;4915352;29;20532;-52
2023/07/13 11:09:59;;;;;;;3.92;1.05;;;25.30;47.50;;;;;;4915535;29;20076;-52
2023/07/13 11:12:47;;;;;;;2.03;1.35;;;25.30;47.30;;;;;;4905917;29;20048;-50
2023/07/13 11:15:49;;;;;;;4.00;1.40;;;25.40;47.00;;;;;;4914966;29;20866;-52
2023/07/13 11:18:24;;;;;;;4.55;1.60;;;25.40;47.10;;;;;;4914504;29;20115;-49
2023/07/13 11:20:52;;;;;;;2.47;1.63;;;25.50;46.70;;;;;;4916317;29;20413;-53
2023/07/13 11:23:28;;;;;;;2.88;1.60;;;25.50;46.90;;;;;;4913527;29;20044;-50
2023/07/13 11:25:55;;;;;;;3.15;1.25;;;25.50;45.80;;;;;;4919754;29;20044;-52
2023/07/13 11:28:25;;;;;;;4.85;1.40;;;25.60;47.20;;;;;;4916262;29;20046;-53
2023/07/13 11:30:57;;;;;;;1.40;0.85;;;25.70;46.50;;;;;;4914909;29;20583;-52
2023/07/13 11:33:38;;;;;;;1.95;1.33;;;25.80;46.90;;;;;;4912498;29;20131;-60
2023/07/13 11:36:14;;;;;;;3.90;2.13;;;25.90;46.10;;;;;;4912792;29;20100;-60
2023/07/13 11:38:40;;;;;;;4.22;1.10;;;26.00;45.60;;;;;;4914047;29;20059;-60
2023/07/13 11:41:17;;;;;;;2.83;1.70;;;26.20;45.50;;;;;;4920368;29;20083;-60
2023/07/13 11:43:44;;;;;;;5.28;1.15;;;26.30;44.90;;;;;;4913229;29;20048;-60
2023/07/13 11:46:23;;;;;;;5.20;2.08;;;26.40;45.10;;;;;;4912540;29;20092;-60
2023/07/13 11:48:51;;;;;;;2.97;1.23;;;26.40;44.80;;;;;;4913274;29;20060;-60
2023/07/13 11:51:33;;;;;;;5.10;1.20;;;26.60;44.90;;;;;;4913017;29;20898;-60
2023/07/13 11:54:03;;;;;;;;;;;26.70;44.70;;;;;;4913404;29;20078;-60
2023/07/13 11:56:32;;;;;;;2.17;1.02;;;26.90;45.50;;;;;;4912569;29;20123;-60
2023/07/13 11:59:05;;;;;;;1.25;0.85;;;26.90;44.40;;;;;;4917502;29;20483;-60
2023/07/13 12:01:34;;;;;;;2.70;1.13;;;27.10;43.70;;;;;;4923914;29;20119;-60
2023/07/13 12:04:03;;;;;;;2.10;1.20;;;27.10;43.50;;;;;;4924656;29;20493;-60
2023/07/13 12:06:33;;;;;;;1.83;0.95;;;27.20;43.50;;;;;;4923965;29;20054;-60
2023/07/13 12:09:03;;;;;;;2.42;1.13;;;27.20;42.90;;;;;;4922154;29;20148;-60
2023/07/13 12:11:34;;;;;;;5.85;1.40;;;27.20;42.70;;;;;;4924975;29;20067;-60
2023/07/13 12:14:01;;;;;;;4.95;1.50;;;27.20;42.60;;;;;;4928401;29;20043;-60
2023/07/13 12:16:32;;;;;;;3.60;1.10;;;27.10;42.30;;;;;;4910421;29;20678;-60
2023/07/13 12:19:01;;;;;;;1.75;0.90;;;27.10;41.80;;;;;;4928400;29;20620;-60
2023/07/13 12:21:37;;;;;;;3.30;1.40;;;27.00;42.40;;;;;;4926768;29;20497;-60
2023/07/13 12:24:05;;;;;;;2.25;1.10;;;27.00;42.20;;;;;;4928034;29;20128;-60
2023/07/13 12:26:32;;;;;;;3.55;1.00;;;27.00;42.70;;;;;;4926243;29;20047;-60
2023/07/13 12:29:01;;;;;;;5.97;1.48;;;27.00;42.00;;;;;;4926702;29;20067;-60
2023/07/13 12:31:35;;;;;;;1.10;0.90;;;27.10;42.30;;;;;;4912714;29;20051;-60
2023/07/13 12:34:06;;;;;;;1.83;0.77;;;27.00;42.00;;;;;;4921205;29;20051;-60
2023/07/13 12:36:35;;;;;;;2.38;1.60;;;27.00;41.80;;;;;;4927601;29;20417;-60
2023/07/13 12:39:29;;;;;;;2.97;1.05;;;26.90;41.70;;;;;;4915665;29;20048;-60
2023/07/13 12:42:14;;;;;;;2.70;1.23;;;26.80;41.80;;;;;;4916323;29;20048;-60
2023/07/13 12:44:42;;;;;;;2.47;1.25;;;26.70;42.00;;;;;;4913817;29;20132;-60
2023/07/13 12:47:12;;;;;;;3.08;1.27;;;26.60;43.10;;;;;;4917902;29;20047;-60
2023/07/13 12:49:52;;;;;;;1.80;1.42;;;26.50;42.00;;;;;;4920563;29;20062;-60
2023/07/13 12:52:34;;;;;;;2.33;0.93;;;26.30;42.90;;;;;;4920891;29;20082;-59
2023/07/13 12:55:14;;;;;;;2.13;1.10;;;26.30;42.50;;;;;;4916922;29;20052;-59
2023/07/13 12:57:51;;;;;;;1.50;0.98;;;26.20;42.70;;;;;;4916972;29;20052;-60
2023/07/13 13:00:34;;;;;;;1.08;0.93;;;26.20;42.90;;;;;;4916158;29;20035;-60
2023/07/13 13:03:05;;;;;;;1.92;0.90;;;26.30;43.10;;;;;;4917981;29;20489;-60
2023/07/13 13:06:18;;;;;;;1.45;0.90;;;26.40;43.70;;;;;;4918609;29;20044;-59
2023/07/13 13:08:51;;;;;;;1.25;0.98;;;26.70;43.50;;;;;;4918716;29;20119;-59